createdAt,value
2023-04-06T00:04:16.100Z,4.23
2023-04-06T00:09:18.666Z,4.23
2023-04-06T00:14:21.501Z,3.80
2023-04-06T00:19:23.910Z,5.17
2023-04-06T00:24:26.498Z,5.30
2023-04-06T00:29:28.901Z,5.90
2023-04-06T00:34:31.296Z,5.67
2023-04-06T00:39:33.679Z,5.57
2023-04-06T00:44:36.120Z,6.00
2023-04-06T00:49:38.534Z,5.73
2023-04-06T00:54:40.996Z,5.10
2023-04-06T00:59:44.540Z,5.67
2023-04-06T01:04:48.658Z,5.00
2023-04-06T01:09:59.643Z,7.27
2023-04-06T01:15:07.144Z,5.47
2023-04-06T01:20:11.494Z,5.47
2023-04-06T01:25:14.432Z,4.73
2023-04-06T01:30:28.431Z,5.30
2023-04-06T01:35:37.889Z,4.93
2023-04-06T01:40:59.124Z,4.80
2023-04-06T01:46:06.626Z,4.80
2023-04-06T01:51:15.844Z,4.95
2023-04-06T01:56:30.084Z,5.23
2023-04-06T02:01:39.499Z,4.72
2023-04-06T02:06:42.370Z,4.53
2023-04-06T02:11:48.198Z,4.60
2023-04-06T02:16:50.928Z,4.90
2023-04-06T02:21:53.548Z,5.30
2023-04-06T02:26:55.953Z,5.13
2023-04-06T02:31:58.530Z,4.97
2023-04-06T02:37:01.348Z,4.57
2023-04-06T02:42:04.050Z,5.00
2023-04-06T02:47:06.698Z,5.13
2023-04-06T02:52:09.325Z,5.40
2023-04-06T02:57:13.065Z,4.63
2023-04-06T03:02:20.158Z,4.70
2023-04-06T03:07:23.713Z,6.00
2023-04-06T03:12:26.249Z,5.13
2023-04-06T03:18:04.359Z,5.47
2023-04-06T03:23:22.998Z,4.60
2023-04-06T03:28:30.126Z,4.63
2023-04-06T03:33:35.886Z,5.20
2023-04-06T03:38:40.113Z,4.43
2023-04-06T03:43:47.528Z,4.25
2023-04-06T03:48:50.448Z,4.07
2023-04-06T03:53:54.691Z,4.77
2023-04-06T03:58:57.270Z,4.40
2023-04-06T04:03:59.994Z,4.97
2023-04-06T04:09:02.597Z,4.17
2023-04-06T04:14:07.500Z,4.30
2023-04-06T04:19:10.529Z,4.23
2023-04-06T04:24:13.938Z,4.33
2023-04-06T04:29:16.906Z,4.80
2023-04-06T04:34:22.145Z,4.13
2023-04-06T04:39:26.886Z,5.00
2023-04-06T04:44:45.076Z,4.63
2023-04-06T04:49:59.595Z,4.90
2023-04-06T04:55:07.913Z,4.13
2023-04-06T05:00:13.916Z,4.00
2023-04-06T05:05:19.382Z,3.93
2023-04-06T05:10:22.639Z,4.10
2023-04-06T05:15:36.146Z,3.90
2023-04-06T05:20:48.435Z,4.47
2023-04-06T05:25:51.640Z,3.97
2023-04-06T05:30:58.600Z,3.40
2023-04-06T05:36:05.120Z,4.03
2023-04-06T05:41:08.242Z,4.60
2023-04-06T05:46:12.552Z,3.73
2023-04-06T05:51:17.762Z,4.03
2023-04-06T05:56:25.230Z,4.20
2023-04-06T06:01:28.308Z,3.77
2023-04-06T06:06:33.919Z,3.63
2023-04-06T06:12:05.472Z,3.60
2023-04-06T06:17:08.367Z,5.00
2023-04-06T06:22:12.042Z,4.23
2023-04-06T06:27:18.591Z,4.70
2023-04-06T06:32:21.786Z,4.80
2023-04-06T06:37:29.286Z,4.00
2023-04-06T06:42:33.816Z,4.20
2023-04-06T06:47:43.991Z,3.73
2023-04-06T06:52:47.894Z,3.20
2023-04-06T06:57:50.716Z,3.00
2023-04-06T07:02:53.544Z,3.57
2023-04-06T07:07:57.210Z,3.33
2023-04-06T07:13:01.765Z,3.93
2023-04-06T07:18:04.779Z,3.53
2023-04-06T07:23:07.924Z,4.97
2023-04-06T07:28:10.484Z,2.97
2023-04-06T07:33:13.534Z,3.60
2023-04-06T07:38:18.000Z,3.03
2023-04-06T07:43:21.127Z,3.57
2023-04-06T07:48:24.990Z,3.90
2023-04-06T07:53:27.848Z,3.30
2023-04-06T07:58:30.338Z,3.10
2023-04-06T08:03:35.455Z,2.83
2023-04-06T08:08:38.196Z,2.83
2023-04-06T08:13:40.720Z,3.13
2023-04-06T08:18:43.325Z,3.77
2023-04-06T08:23:47.414Z,3.37
2023-04-06T08:28:49.986Z,2.70
2023-04-06T08:33:52.460Z,2.50
2023-04-06T08:38:55.342Z,3.40
2023-04-06T08:44:01.753Z,3.63
2023-04-06T08:49:08.106Z,3.43
2023-04-06T08:54:10.985Z,3.87
2023-04-06T08:59:13.512Z,2.90
2023-04-06T09:04:17.033Z,2.13
2023-04-06T09:09:20.720Z,2.77
2023-04-06T09:14:38.986Z,1.80
2023-04-06T09:19:48.155Z,2.17
2023-04-06T09:24:54.828Z,2.03
2023-04-06T09:30:15.032Z,2.50
2023-04-06T09:35:17.940Z,2.00
2023-04-06T09:40:22.530Z,2.90
2023-04-06T09:45:25.359Z,2.10
2023-04-06T09:50:28.555Z,1.90
2023-04-06T09:55:34.746Z,2.47
2023-04-06T10:00:54.537Z,2.00
2023-04-06T10:06:00.022Z,3.00
2023-04-06T10:11:03.706Z,1.80
2023-04-06T10:16:07.714Z,3.10
2023-04-06T10:21:16.085Z,2.83
2023-04-06T10:26:21.986Z,2.23
2023-04-06T10:31:28.786Z,2.07
2023-04-06T10:36:35.608Z,2.30
2023-04-06T10:41:44.511Z,2.17
2023-04-06T10:46:55.074Z,1.83
2023-04-06T10:51:58.713Z,3.13
2023-04-06T10:57:02.275Z,2.20
2023-04-06T11:02:04.699Z,2.87
2023-04-06T11:07:07.206Z,1.80
2023-04-06T11:12:09.612Z,3.37
2023-04-06T11:17:12.203Z,2.73
2023-04-06T11:22:14.699Z,2.63
2023-04-06T11:27:17.828Z,3.10
2023-04-06T11:32:23.667Z,2.20
2023-04-06T11:37:29.362Z,2.73
2023-04-06T11:42:31.979Z,2.03
2023-04-06T11:47:36.707Z,2.57
2023-04-06T11:52:40.915Z,2.77
2023-04-06T11:57:44.093Z,2.57
2023-04-06T12:02:50.411Z,2.13
2023-04-06T12:07:53.003Z,2.40
2023-04-06T12:12:55.695Z,1.83
2023-04-06T12:17:58.751Z,2.27
2023-04-06T12:23:01.512Z,2.27
2023-04-06T12:28:04.039Z,2.50
2023-04-06T12:33:07.597Z,2.00
2023-04-06T12:38:10.665Z,2.20
2023-04-06T12:43:14.570Z,2.97
2023-04-06T12:48:17.210Z,1.83
2023-04-06T12:53:20.062Z,2.93
2023-04-06T12:58:23.909Z,2.20
2023-04-06T13:03:27.008Z,2.40
2023-04-06T13:08:29.622Z,2.43
2023-04-06T13:13:32.739Z,2.57
2023-04-06T13:18:36.145Z,2.07
2023-04-06T13:23:38.608Z,3.20
2023-04-06T13:28:41.584Z,2.13
2023-04-06T13:33:44.210Z,2.17
2023-04-06T13:38:46.781Z,2.27
2023-04-06T13:43:49.553Z,1.73
2023-04-06T13:48:52.451Z,1.83
2023-04-06T13:53:55.114Z,2.20
2023-04-06T13:58:58.251Z,2.10
2023-04-06T14:04:01.275Z,2.53
2023-04-06T14:09:03.884Z,1.33
2023-04-06T14:14:06.425Z,1.50
2023-04-06T14:19:08.812Z,2.60
2023-04-06T14:24:11.489Z,1.93
2023-04-06T14:29:13.970Z,2.57
2023-04-06T14:34:18.259Z,1.50
2023-04-06T14:39:20.977Z,1.30
2023-04-06T14:44:28.448Z,1.53
2023-04-06T14:55:55.576Z,1.43
2023-04-06T15:01:18.300Z,1.43
2023-04-06T15:06:24.257Z,2.07
2023-04-06T15:11:27.503Z,1.43
2023-04-06T15:16:33.886Z,1.70
2023-04-06T15:21:36.620Z,1.33
2023-04-06T15:26:39.507Z,1.77
2023-04-06T15:32:03.311Z,1.20
2023-04-06T15:37:26.357Z,2.37
2023-04-06T15:42:32.377Z,4.60
2023-04-06T15:47:41.795Z,5.10
2023-04-06T15:52:44.456Z,2.87
2023-04-06T15:57:46.987Z,2.93
2023-04-06T16:02:49.628Z,2.43
2023-04-06T16:07:52.201Z,2.50
2023-04-06T16:12:54.602Z,2.63
2023-04-06T16:17:57.289Z,3.03
2023-04-06T16:22:59.841Z,2.70
2023-04-06T16:28:02.307Z,3.33
2023-04-06T16:33:04.769Z,4.57
2023-04-06T16:38:07.296Z,2.10
2023-04-06T16:43:10.369Z,2.10
2023-04-06T16:48:13.526Z,1.77
2023-04-06T16:53:17.007Z,1.60
2023-04-06T16:58:19.493Z,2.23
2023-04-06T17:03:23.928Z,2.97
2023-04-06T17:08:29.832Z,1.73
2023-04-06T17:13:32.289Z,2.07
2023-04-06T17:18:35.294Z,1.53
2023-04-06T17:23:37.828Z,1.77
2023-04-06T17:28:40.743Z,2.00
2023-04-06T17:33:43.581Z,1.97
2023-04-06T17:38:46.762Z,3.33
2023-04-06T17:43:49.241Z,2.43
2023-04-06T17:48:53.461Z,2.07
2023-04-06T17:53:56.018Z,1.97
2023-04-06T17:58:58.471Z,1.43
2023-04-06T18:04:01.322Z,1.70
2023-04-06T18:09:04.051Z,1.90
2023-04-06T18:14:08.772Z,2.03
2023-04-06T18:19:11.428Z,1.60
2023-04-06T18:24:27.249Z,2.37
2023-04-06T18:29:36.467Z,1.53
2023-04-06T18:34:39.901Z,1.97
2023-04-06T18:39:43.652Z,1.90
2023-04-06T18:44:46.962Z,1.80
2023-04-06T18:49:50.695Z,3.23
2023-04-06T19:00:57.900Z,2.50
2023-04-06T19:06:00.782Z,2.80
2023-04-06T19:11:08.203Z,3.27
2023-04-06T19:16:11.574Z,5.37
2023-04-06T19:21:24.687Z,3.00
2023-04-06T19:26:30.805Z,2.70
2023-04-06T19:31:33.242Z,2.70
2023-04-06T19:36:35.789Z,2.70
2023-04-06T19:41:39.671Z,2.30
2023-04-06T19:46:43.025Z,2.00
2023-04-06T19:51:45.655Z,2.17
2023-04-06T19:56:48.635Z,2.23
2023-04-06T20:01:51.588Z,2.30
2023-04-06T20:06:54.123Z,2.60
2023-04-06T20:11:56.754Z,2.00
2023-04-06T20:16:59.295Z,2.00
2023-04-06T20:22:03.955Z,2.23
2023-04-06T20:27:06.627Z,1.77
2023-04-06T20:32:12.753Z,2.27
2023-04-06T20:37:15.762Z,1.93
2023-04-06T20:42:22.979Z,1.83
2023-04-06T20:47:25.869Z,1.50
2023-04-06T20:52:28.324Z,1.80
2023-04-06T20:57:30.808Z,2.20
2023-04-06T21:02:33.449Z,1.70
2023-04-06T21:07:38.345Z,1.67
2023-04-06T21:12:40.665Z,1.70
2023-04-06T21:17:43.137Z,1.47
2023-04-06T21:22:45.528Z,1.40
2023-04-06T21:27:47.819Z,1.90
2023-04-06T21:32:50.260Z,1.50
2023-04-06T21:37:52.620Z,1.33
2023-04-06T21:42:54.945Z,1.40
2023-04-06T21:47:57.303Z,1.40
2023-04-06T21:52:59.700Z,2.27
2023-04-06T21:58:02.180Z,1.63
2023-04-06T22:03:04.972Z,1.33
2023-04-06T22:08:09.661Z,1.57
2023-04-06T22:13:15.374Z,1.40
2023-04-06T22:18:17.850Z,1.77
2023-04-06T22:23:21.387Z,1.47
2023-04-06T22:28:23.908Z,1.80
2023-04-06T22:33:26.208Z,1.67
2023-04-06T22:38:28.584Z,2.23
2023-04-06T22:43:33.781Z,1.50
2023-04-06T22:48:36.294Z,2.80
2023-04-06T22:53:38.598Z,1.73
2023-04-06T22:58:41.017Z,2.00
2023-04-06T23:03:43.436Z,2.17
2023-04-06T23:08:47.490Z,1.50
2023-04-06T23:13:49.958Z,1.47
2023-04-06T23:18:52.309Z,1.33
2023-04-06T23:23:54.656Z,1.60
2023-04-06T23:28:57.009Z,1.87
2023-04-06T23:33:59.347Z,1.70
2023-04-06T23:39:01.773Z,1.47
2023-04-06T23:44:04.160Z,1.37
2023-04-06T23:49:06.845Z,1.30
2023-04-06T23:54:09.954Z,2.93
2023-04-06T23:59:12.329Z,1.57
